Time;durP1;ratioP1;P1;durP2;ratioP2;P2;SDS_P1;SDS_P2;PMS_P1;PMS_P2;Temp;Humidity;BMP_temperature;BMP_pressure;BME280_temperature;BME280_humidity;BME280_pressure;Samples;Min_cycle;Max_cycle;Signal;HPM_P1;HPM_P2
2022/07/25 00:00:24;;;;;;;13.00;11.90;;;24.40;99.90;;;;;;5055234;28;20573;-58
2022/07/25 00:02:51;;;;;;;14.93;13.63;;;24.50;99.90;;;;;;5055269;28;20452;-58
2022/07/25 00:05:19;;;;;;;13.40;12.10;;;24.50;99.90;;;;;;5055083;28;20453;-58
2022/07/25 00:07:46;;;;;;;12.70;11.50;;;24.50;99.90;;;;;;5054908;28;20942;-57
2022/07/25 00:10:13;;;;;;;13.20;12.10;;;24.50;99.90;;;;;;5055217;28;20487;-59
2022/07/25 00:12:42;;;;;;;13.17;11.97;;;24.40;99.90;;;;;;5055216;28;20453;-59
2022/07/25 00:15:10;;;;;;;13.20;11.90;;;24.50;99.90;;;;;;5054701;28;20943;-58
2022/07/25 00:17:40;;;;;;;14.70;12.50;;;24.50;99.90;;;;;;5054876;28;20460;-58
2022/07/25 00:20:08;;;;;;;13.53;12.23;;;24.50;99.90;;;;;;5054970;28;20511;-59
2022/07/25 00:22:36;;;;;;;15.50;12.30;;;24.50;99.90;;;;;;5054947;28;20449;-58
2022/07/25 00:25:03;;;;;;;13.33;12.13;;;24.50;99.90;;;;;;5054603;28;20452;-59
2022/07/25 00:27:30;;;;;;;13.33;12.10;;;24.40;99.90;;;;;;5054975;28;20473;-59
2022/07/25 00:29:58;;;;;;;15.53;14.03;;;24.10;99.90;;;;;;5054792;28;20474;-58
2022/07/25 00:32:25;;;;;;;13.43;12.17;;;24.00;99.90;;;;;;5054693;28;20505;-59
2022/07/25 00:34:54;;;;;;;13.40;12.20;;;24.00;99.90;;;;;;5054787;28;20808;-59
2022/07/25 00:37:21;;;;;;;12.97;11.90;;;23.90;99.90;;;;;;5054524;28;20851;-59
2022/07/25 00:39:48;;;;;;;12.63;11.40;;;23.90;99.90;;;;;;5054553;28;20916;-58
2022/07/25 00:42:15;;;;;;;15.37;12.67;;;23.90;99.90;;;;;;5054189;28;20509;-58
2022/07/25 00:44:42;;;;;;;13.03;11.80;;;24.00;99.90;;;;;;5054329;28;20449;-59
2022/07/25 00:47:10;;;;;;;12.60;11.53;;;24.00;99.90;;;;;;5054082;28;20456;-59
2022/07/25 00:49:37;;;;;;;12.57;11.37;;;24.00;99.90;;;;;;5054050;28;20462;-58
2022/07/25 00:52:06;;;;;;;14.30;12.80;;;23.90;99.90;;;;;;5054210;28;20460;-58
2022/07/25 00:54:34;;;;;;;13.73;12.53;;;24.00;99.90;;;;;;5054108;28;20438;-58
2022/07/25 00:57:01;;;;;;;12.90;11.60;;;24.00;99.90;;;;;;5053875;28;20540;-57
2022/07/25 00:59:28;;;;;;;15.00;13.40;;;;;;;;;;5053911;28;20495;-58
2022/07/25 01:01:56;;;;;;;15.17;13.67;;;23.80;99.90;;;;;;5053904;28;20446;-58
2022/07/25 01:04:23;;;;;;;14.10;12.80;;;23.90;99.90;;;;;;5054138;28;20442;-58
2022/07/25 01:06:51;;;;;;;13.10;12.00;;;;;;;;;;5054165;28;20471;-58
2022/07/25 01:09:21;;;;;;;13.70;12.47;;;23.70;99.90;;;;;;5053727;28;20453;-57
2022/07/25 01:11:48;;;;;;;14.37;13.10;;;23.70;99.90;;;;;;5053884;28;20500;-57
2022/07/25 01:14:15;;;;;;;14.10;12.80;;;23.80;99.90;;;;;;5054082;28;20449;-58
2022/07/25 01:16:42;;;;;;;14.77;12.37;;;23.70;99.90;;;;;;5053881;28;20862;-58
2022/07/25 01:19:10;;;;;;;14.17;12.87;;;;;;;;;;5053428;28;20536;-58
2022/07/25 01:21:40;;;;;;;12.77;11.67;;;23.40;99.90;;;;;;5053979;28;20534;-58
2022/07/25 01:24:09;;;;;;;15.13;13.73;;;23.40;99.90;;;;;;5054516;28;20937;-58
2022/07/25 01:26:36;;;;;;;14.07;12.60;;;23.40;99.90;;;;;;5053414;28;20996;-58
2022/07/25 01:29:03;;;;;;;13.60;12.33;;;23.60;99.90;;;;;;5053740;28;20867;-58
2022/07/25 01:31:31;;;;;;;17.00;12.97;;;23.60;99.90;;;;;;5053336;28;20551;-58
2022/07/25 01:33:58;;;;;;;12.53;11.40;;;23.70;99.90;;;;;;5053327;28;20868;-58
2022/07/25 01:36:25;;;;;;;13.90;12.70;;;23.70;99.90;;;;;;5053631;28;20456;-58
2022/07/25 01:38:53;;;;;;;13.13;12.00;;;23.60;99.90;;;;;;5053547;28;20457;-58
2022/07/25 01:41:21;;;;;;;15.03;13.60;;;23.60;99.90;;;;;;5052906;28;20843;-58
2022/07/25 01:43:48;;;;;;;12.57;11.40;;;23.50;99.90;;;;;;5053490;28;20484;-58
2022/07/25 01:46:15;;;;;;;13.97;12.70;;;23.50;99.90;;;;;;5053225;28;20453;-58
2022/07/25 01:48:46;;;;;;;14.30;12.80;;;23.50;99.90;;;;;;5053104;28;20966;-58
2022/07/25 01:51:13;;;;;;;13.43;12.13;;;23.40;99.90;;;;;;5053026;28;20556;-58
2022/07/25 01:53:40;;;;;;;13.67;12.57;;;23.40;99.90;;;;;;5053143;28;20453;-58
2022/07/25 01:56:09;;;;;;;13.57;12.37;;;23.60;99.90;;;;;;5053028;28;20488;-58
2022/07/25 01:58:36;;;;;;;14.77;13.47;;;23.60;99.90;;;;;;5053258;28;20540;-58
2022/07/25 02:01:04;;;;;;;16.57;12.13;;;23.50;99.90;;;;;;5052744;28;21016;-58
2022/07/25 02:03:31;;;;;;;15.70;14.20;;;23.40;99.90;;;;;;5052999;28;20532;-58
2022/07/25 02:06:00;;;;;;;14.47;13.20;;;23.30;99.90;;;;;;5052989;28;20769;-58
2022/07/25 02:08:27;;;;;;;12.93;11.80;;;23.20;99.90;;;;;;5052099;28;20541;-58
2022/07/25 02:10:55;;;;;;;13.93;12.73;;;23.30;99.90;;;;;;5053355;28;20473;-58
2022/07/25 02:13:25;;;;;;;13.03;11.93;;;23.30;99.90;;;;;;5052918;28;20433;-58
2022/07/25 02:15:52;;;;;;;13.10;11.70;;;23.40;99.90;;;;;;5052979;28;20507;-58
2022/07/25 02:18:19;;;;;;;12.40;11.37;;;23.40;99.90;;;;;;5053019;28;20925;-58
2022/07/25 02:20:46;;;;;;;13.40;12.20;;;23.30;99.90;;;;;;5052907;28;20491;-58
2022/07/25 02:23:14;;;;;;;14.43;11.97;;;23.20;99.90;;;;;;5053003;28;20449;-58
2022/07/25 02:25:41;;;;;;;13.67;12.47;;;23.10;99.90;;;;;;5052807;28;20502;-58
2022/07/25 02:28:08;;;;;;;14.20;12.87;;;23.10;99.90;;;;;;5052716;28;20445;-58
2022/07/25 02:30:37;;;;;;;14.23;12.67;;;23.10;99.90;;;;;;5052888;28;20511;-57
2022/07/25 02:33:04;;;;;;;13.47;12.27;;;23.10;99.90;;;;;;5053068;28;20536;-57
2022/07/25 02:35:31;;;;;;;14.27;12.93;;;23.00;99.90;;;;;;5052703;28;20910;-58
2022/07/25 02:37:58;;;;;;;13.53;12.13;;;23.20;99.90;;;;;;5052889;28;20477;-58
2022/07/25 02:40:26;;;;;;;12.87;11.77;;;23.30;99.90;;;;;;5053011;28;20485;-58
2022/07/25 02:42:53;;;;;;;14.53;13.33;;;23.30;99.90;;;;;;5052452;28;20480;-58
2022/07/25 02:45:20;;;;;;;14.67;13.27;;;23.30;99.90;;;;;;5052786;28;20547;-58
2022/07/25 02:47:49;;;;;;;12.80;11.53;;;23.30;99.90;;;;;;5052446;28;20452;-58
2022/07/25 02:50:16;;;;;;;14.17;12.03;;;23.20;99.90;;;;;;5052535;28;20458;-58
2022/07/25 02:52:44;;;;;;;12.93;11.63;;;23.20;99.90;;;;;;5052744;28;20457;-58
2022/07/25 02:55:12;;;;;;;13.37;11.90;;;23.20;99.90;;;;;;5052741;28;20453;-58
2022/07/25 02:57:39;;;;;;;13.50;12.30;;;23.10;99.90;;;;;;5052714;28;20452;-58
2022/07/25 03:00:07;;;;;;;12.37;11.37;;;23.00;99.90;;;;;;5052231;28;20543;-57
2022/07/25 03:02:35;;;;;;;12.63;11.43;;;22.90;99.90;;;;;;5052330;28;20481;-58
2022/07/25 03:05:07;;;;;;;13.50;11.80;;;22.80;99.90;;;;;;5052725;28;20528;-58
2022/07/25 03:07:34;;;;;;;13.70;12.40;;;22.80;99.90;;;;;;5052616;28;20444;-58
2022/07/25 03:10:01;;;;;;;13.10;11.90;;;22.80;99.90;;;;;;5052406;28;20477;-58
2022/07/25 03:12:28;;;;;;;13.80;12.60;;;22.70;99.90;;;;;;5052688;28;20458;-58
2022/07/25 03:14:56;;;;;;;13.23;12.03;;;22.70;99.90;;;;;;5052271;28;20536;-58
2022/07/25 03:17:23;;;;;;;12.17;11.13;;;22.60;99.90;;;;;;5052092;28;20477;-58
2022/07/25 03:19:50;;;;;;;14.30;12.43;;;22.70;99.90;;;;;;5054037;28;20897;-58
2022/07/25 03:22:18;;;;;;;12.43;11.33;;;22.80;99.90;;;;;;5056110;28;20499;-58
2022/07/25 03:24:45;;;;;;;12.33;11.17;;;22.80;99.90;;;;;;5055741;28;20877;-58
2022/07/25 03:27:13;;;;;;;12.67;11.30;;;22.80;99.90;;;;;;5056046;28;20455;-58
2022/07/25 03:29:41;;;;;;;13.20;11.77;;;22.80;99.90;;;;;;5056019;28;20548;-58
2022/07/25 03:32:08;;;;;;;13.40;12.20;;;22.90;99.90;;;;;;5055944;28;20515;-58
2022/07/25 03:34:36;;;;;;;11.93;10.83;;;22.90;99.90;;;;;;5055712;28;20444;-58
2022/07/25 03:37:04;;;;;;;13.03;11.83;;;22.90;99.90;;;;;;5055910;28;20440;-58
2022/07/25 03:39:33;;;;;;;13.20;11.80;;;22.90;99.90;;;;;;5055724;28;20560;-58
2022/07/25 03:42:00;;;;;;;14.43;13.03;;;22.70;99.90;;;;;;5055153;28;20525;-58
2022/07/25 03:44:27;;;;;;;14.10;12.90;;;22.60;99.90;;;;;;5055449;28;21036;-58
2022/07/25 03:46:55;;;;;;;13.23;11.83;;;22.50;99.90;;;;;;5055295;28;20425;-58
2022/07/25 03:49:22;;;;;;;13.80;12.60;;;22.60;99.90;;;;;;5055486;28;20477;-57
2022/07/25 03:51:49;;;;;;;13.10;11.90;;;22.60;99.90;;;;;;5055307;28;20477;-58
2022/07/25 03:54:16;;;;;;;12.90;11.63;;;22.60;99.90;;;;;;5055239;28;20480;-58
2022/07/25 03:56:47;;;;;;;12.30;11.20;;;22.50;99.90;;;;;;5055136;28;20877;-58
2022/07/25 03:59:16;;;;;;;12.13;11.03;;;22.40;99.90;;;;;;5055908;28;20449;-58
2022/07/25 04:01:44;;;;;;;13.00;11.80;;;22.40;99.90;;;;;;5055063;28;20973;-57
2022/07/25 04:04:12;;;;;;;11.90;10.80;;;22.40;99.90;;;;;;5055257;28;20554;-57
2022/07/25 04:06:40;;;;;;;11.60;10.40;;;22.40;99.90;;;;;;5055211;28;20495;-58
2022/07/25 04:09:08;;;;;;;14.13;12.93;;;22.50;99.90;;;;;;5055060;28;20876;-58
2022/07/25 04:11:37;;;;;;;13.87;12.23;;;22.50;99.90;;;;;;5055121;28;20823;-58
2022/07/25 04:14:06;;;;;;;11.17;10.17;;;22.50;99.90;;;;;;5055050;28;20445;-58
2022/07/25 04:16:33;;;;;;;12.60;11.30;;;22.60;99.90;;;;;;5055140;28;20441;-58
2022/07/25 04:19:01;;;;;;;12.60;11.40;;;22.60;99.90;;;;;;5054772;28;20521;-58
2022/07/25 04:21:28;;;;;;;12.27;11.13;;;22.60;99.90;;;;;;5054387;28;20488;-57
2022/07/25 04:23:55;;;;;;;11.73;10.60;;;22.70;99.90;;;;;;5055093;28;20467;-58
2022/07/25 04:26:22;;;;;;;11.60;10.40;;;22.60;99.90;;;;;;5054901;28;20536;-58
2022/07/25 04:28:49;;;;;;;11.80;10.90;;;22.50;99.90;;;;;;5054794;28;20445;-58
2022/07/25 04:31:18;;;;;;;14.23;12.80;;;22.70;99.90;;;;;;5053679;28;20472;-58
2022/07/25 04:33:46;;;;;;;11.73;10.53;;;22.60;99.90;;;;;;5054565;28;20450;-58
2022/07/25 04:36:13;;;;;;;11.97;10.73;;;22.50;99.90;;;;;;5054586;28;20449;-58
2022/07/25 04:38:40;;;;;;;13.33;12.10;;;22.60;99.90;;;;;;5054394;28;20451;-58
2022/07/25 04:41:07;;;;;;;12.30;11.10;;;22.70;99.90;;;;;;5053868;28;20485;-58
2022/07/25 04:43:34;;;;;;;12.40;11.30;;;22.70;99.90;;;;;;5054536;28;20513;-57
2022/07/25 04:46:01;;;;;;;14.27;11.87;;;22.80;99.90;;;;;;5054297;28;20481;-58
2022/07/25 04:48:30;;;;;;;12.20;11.00;;;22.60;99.90;;;;;;5054042;28;20541;-58
2022/07/25 04:50:57;;;;;;;11.90;10.80;;;22.70;99.90;;;;;;5054205;28;20505;-58
2022/07/25 04:53:24;;;;;;;13.70;11.77;;;22.70;99.90;;;;;;5054031;28;20452;-58
2022/07/25 04:55:52;;;;;;;12.60;11.53;;;22.80;99.90;;;;;;5054081;28;20810;-58
2022/07/25 04:58:19;;;;;;;12.30;11.30;;;22.80;99.90;;;;;;5053847;28;20510;-58
2022/07/25 05:00:47;;;;;;;13.60;12.37;;;22.80;99.90;;;;;;5053765;28;20575;-58
2022/07/25 05:03:14;;;;;;;13.50;11.40;;;22.90;99.90;;;;;;5053893;28;20481;-58
2022/07/25 05:05:42;;;;;;;12.70;11.40;;;22.90;99.90;;;;;;5053616;28;20458;-58
2022/07/25 05:08:10;;;;;;;13.90;12.60;;;23.00;99.90;;;;;;5053503;28;20535;-58
2022/07/25 05:10:37;;;;;;;15.27;13.10;;;23.10;99.90;;;;;;5054072;28;20531;-58
2022/07/25 05:13:04;;;;;;;11.40;10.30;;;23.20;99.90;;;;;;5053482;28;20485;-58
2022/07/25 05:15:31;;;;;;;12.60;11.50;;;23.20;99.90;;;;;;5053812;28;20556;-58
2022/07/25 05:17:58;;;;;;;13.63;12.23;;;23.30;99.90;;;;;;5053568;28;20498;-57
2022/07/25 05:20:26;;;;;;;14.40;12.87;;;23.30;99.90;;;;;;5053226;28;20504;-57
2022/07/25 05:22:55;;;;;;;12.70;11.43;;;23.40;99.90;;;;;;5053458;28;20528;-57
2022/07/25 05:25:22;;;;;;;12.07;10.87;;;23.50;99.90;;;;;;5053219;28;20961;-58
2022/07/25 05:27:49;;;;;;;15.43;11.43;;;23.50;99.90;;;;;;5053296;28;20480;-57
2022/07/25 05:30:17;;;;;;;12.53;11.43;;;23.60;99.90;;;;;;5053131;28;20473;-57
2022/07/25 05:32:44;;;;;;;13.40;12.00;;;23.60;99.90;;;;;;5053540;28;20548;-57
2022/07/25 05:35:11;;;;;;;12.43;11.37;;;23.70;99.90;;;;;;5053318;28;20503;-57
2022/07/25 05:37:39;;;;;;;12.47;10.93;;;23.80;99.90;;;;;;5053180;28;20454;-57
2022/07/25 05:40:08;;;;;;;13.00;11.80;;;23.80;99.90;;;;;;5053394;28;20564;-57
2022/07/25 05:42:36;;;;;;;12.20;11.00;;;23.90;99.90;;;;;;5052751;28;20595;-57
2022/07/25 05:45:03;;;;;;;12.73;11.47;;;23.90;99.90;;;;;;5053061;28;20457;-57
2022/07/25 05:47:31;;;;;;;11.97;10.77;;;24.00;99.90;;;;;;5052907;28;20449;-57
2022/07/25 05:49:58;;;;;;;13.10;11.80;;;24.10;99.90;;;;;;5052990;28;20564;-57
2022/07/25 05:52:25;;;;;;;11.67;10.57;;;24.20;99.90;;;;;;5052845;28;20441;-58
2022/07/25 05:54:52;;;;;;;14.00;11.30;;;24.20;99.90;;;;;;5052966;28;20449;-57
2022/07/25 05:57:21;;;;;;;14.33;12.30;;;24.30;99.90;;;;;;5053202;28;20430;-57
2022/07/25 05:59:48;;;;;;;11.83;10.83;;;24.40;99.90;;;;;;5052737;28;21004;-57
2022/07/25 06:02:16;;;;;;;13.10;11.90;;;24.50;99.90;;;;;;5052789;28;20481;-57
2022/07/25 06:04:43;;;;;;;12.90;11.70;;;24.60;99.90;;;;;;5052997;28;20960;-57
2022/07/25 06:07:10;;;;;;;12.07;10.63;;;24.70;99.90;;;;;;5052736;28;20541;-57
2022/07/25 06:09:37;;;;;;;12.57;11.50;;;24.80;99.90;;;;;;5052680;28;20524;-58
2022/07/25 06:12:05;;;;;;;15.80;11.80;;;24.90;99.90;;;;;;5053050;28;20540;-57
2022/07/25 06:14:34;;;;;;;11.90;10.70;;;25.00;99.90;;;;;;5052891;28;20457;-57
2022/07/25 06:17:01;;;;;;;11.43;10.47;;;25.10;99.90;;;;;;5052551;28;20456;-57
2022/07/25 06:19:28;;;;;;;12.73;11.43;;;25.10;99.90;;;;;;5052487;28;20449;-57
2022/07/25 06:21:55;;;;;;;11.73;10.73;;;25.30;99.90;;;;;;5052321;28;20513;-57
2022/07/25 06:24:27;;;;;;;12.00;11.00;;;25.30;99.90;;;;;;5052681;28;20453;-57
2022/07/25 06:26:54;;;;;;;13.03;10.63;;;25.40;99.90;;;;;;5052482;28;20456;-57
2022/07/25 06:29:21;;;;;;;12.50;11.40;;;25.40;99.90;;;;;;5052863;28;20544;-57
2022/07/25 06:31:50;;;;;;;13.53;12.10;;;25.50;99.90;;;;;;5052164;28;20444;-57
2022/07/25 06:34:17;;;;;;;11.17;10.27;;;25.60;99.90;;;;;;5052503;28;20848;-57
2022/07/25 06:36:44;;;;;;;12.17;11.13;;;25.70;99.90;;;;;;5052783;28;20429;-58
2022/07/25 06:39:11;;;;;;;11.97;10.87;;;25.70;99.90;;;;;;5052143;28;20472;-58
2022/07/25 06:41:39;;;;;;;10.90;9.80;;;25.80;99.90;;;;;;5052046;28;20525;-58
2022/07/25 06:44:06;;;;;;;12.53;11.33;;;25.90;99.90;;;;;;5052667;28;20480;-58
2022/07/25 06:46:33;;;;;;;11.67;10.67;;;26.00;99.90;;;;;;5052232;28;20544;-58
2022/07/25 06:49:02;;;;;;;13.37;12.10;;;26.10;99.90;;;;;;5052061;28;20449;-58
2022/07/25 06:51:29;;;;;;;11.30;10.40;;;26.20;99.90;;;;;;5052519;28;20881;-58
2022/07/25 06:53:56;;;;;;;11.13;10.13;;;26.30;99.90;;;;;;5052759;28;20488;-58
2022/07/25 06:56:23;;;;;;;13.13;11.97;;;26.40;99.90;;;;;;5055656;28;20457;-58
2022/07/25 06:58:52;;;;;;;11.53;10.30;;;26.40;99.90;;;;;;5056144;28;20989;-58
2022/07/25 07:01:19;;;;;;;11.13;10.03;;;26.60;98.90;;;;;;5055490;28;20850;-58
2022/07/25 07:03:47;;;;;;;11.43;10.33;;;26.70;98.90;;;;;;5055751;28;20449;-58
2022/07/25 07:06:15;;;;;;;11.20;10.30;;;26.80;98.70;;;;;;5055775;28;20475;-58
2022/07/25 07:08:43;;;;;;;11.63;10.53;;;26.90;98.50;;;;;;5055805;28;20523;-58
2022/07/25 07:11:12;;;;;;;14.37;10.87;;;27.00;98.30;;;;;;5056143;28;20497;-58
2022/07/25 07:13:39;;;;;;;11.67;10.67;;;27.10;98.10;;;;;;5055448;28;20980;-58
2022/07/25 07:16:06;;;;;;;10.93;9.73;;;27.10;98.00;;;;;;5055857;28;20452;-58
2022/07/25 07:18:34;;;;;;;11.97;10.77;;;27.30;97.90;;;;;;5055343;28;20453;-58
2022/07/25 07:21:01;;;;;;;10.83;9.90;;;27.30;97.80;;;;;;5055289;28;20900;-59
2022/07/25 07:23:30;;;;;;;11.93;10.77;;;27.40;98.50;;;;;;5055407;28;20948;-58
2022/07/25 07:25:57;;;;;;;12.30;10.77;;;27.50;98.30;;;;;;5055162;28;20484;-58
2022/07/25 07:28:24;;;;;;;13.23;12.13;;;27.60;98.20;;;;;;5055217;28;20437;-58
2022/07/25 07:30:51;;;;;;;11.87;10.87;;;27.70;98.40;;;;;;5055402;28;20556;-58
2022/07/25 07:33:19;;;;;;;12.10;10.87;;;28.00;98.10;;;;;;5055202;28;20433;-58
2022/07/25 07:35:46;;;;;;;11.73;10.60;;;28.50;97.40;;;;;;5054722;28;20453;-59
2022/07/25 07:38:13;;;;;;;11.97;10.77;;;29.10;96.70;;;;;;5055023;28;20531;-58
2022/07/25 07:40:42;;;;;;;11.60;10.60;;;29.70;95.70;;;;;;5055231;28;20489;-58
2022/07/25 07:43:09;;;;;;;11.67;10.77;;;30.50;95.10;;;;;;5054524;28;20481;-58
2022/07/25 07:45:37;;;;;;;11.70;10.77;;;31.00;94.10;;;;;;5055011;28;20441;-59
2022/07/25 07:48:06;;;;;;;15.10;11.87;;;31.70;93.20;;;;;;5055123;28;20890;-58
2022/07/25 07:50:33;;;;;;;68.23;17.50;;;32.30;92.30;;;;;;5054678;28;20973;-58
2022/07/25 07:53:01;;;;;;;11.10;10.07;;;32.80;91.20;;;;;;5054663;28;20535;-58
2022/07/25 07:55:47;;;;;;;12.37;11.37;;;32.80;90.30;;;;;;5054959;28;20530;-59
2022/07/25 07:58:17;;;;;;;11.53;10.63;;;33.00;89.60;;;;;;5054810;28;20772;-59
2022/07/25 08:00:46;;;;;;;11.10;10.10;;;33.40;88.30;;;;;;5054578;28;20548;-59
2022/07/25 08:03:16;;;;;;;14.20;11.37;;;33.90;86.20;;;;;;5054619;28;20468;-59
2022/07/25 08:05:45;;;;;;;10.60;9.57;;;34.20;84.40;;;;;;5053856;28;20428;-58
2022/07/25 08:08:14;;;;;;;13.20;11.03;;;34.30;82.20;;;;;;5054417;28;20539;-58
2022/07/25 08:10:43;;;;;;;11.77;10.57;;;34.80;80.90;;;;;;5054293;28;20575;-58
2022/07/25 08:13:16;;;;;;;15.47;10.30;;;35.20;80.60;;;;;;5054511;28;20528;-59
2022/07/25 08:15:45;;;;;;;12.30;11.03;;;34.90;78.70;;;;;;5054607;28;20535;-59
2022/07/25 08:18:12;;;;;;;11.00;10.10;;;35.00;77.20;;;;;;5054295;28;20453;-59
2022/07/25 08:20:39;;;;;;;11.80;10.90;;;34.90;75.60;;;;;;5054186;28;20555;-58
2022/07/25 08:23:07;;;;;;;11.10;10.30;;;35.20;75.50;;;;;;5054308;28;20575;-59
2022/07/25 08:25:35;;;;;;;11.53;10.57;;;35.00;74.50;;;;;;5054613;28;20535;-59
2022/07/25 08:28:05;;;;;;;11.13;10.23;;;35.60;75.00;;;;;;5054179;28;20437;-58
2022/07/25 08:30:34;;;;;;;11.13;10.23;;;35.60;72.20;;;;;;5054114;28;20563;-58
2022/07/25 08:33:02;;;;;;;10.80;9.80;;;35.90;72.70;;;;;;5054403;28;20464;-58
2022/07/25 08:35:30;;;;;;;11.33;9.47;;;36.40;71.90;;;;;;5053961;28;20449;-59
2022/07/25 08:37:59;;;;;;;9.60;8.90;;;36.20;67.50;;;;;;5054494;28;20543;-59
2022/07/25 08:40:28;;;;;;;9.97;9.17;;;35.60;64.50;;;;;;5054326;28;20483;-59
2022/07/25 08:42:57;;;;;;;17.57;11.17;;;35.40;63.90;;;;;;5053706;28;20527;-59
2022/07/25 08:45:26;;;;;;;10.90;9.80;;;35.60;64.70;;;;;;5053723;28;20990;-59
2022/07/25 08:47:56;;;;;;;9.67;8.83;;;36.70;68.70;;;;;;5053691;28;20932;-59
2022/07/25 08:50:25;;;;;;;12.10;9.23;;;36.30;60.80;;;;;;5053984;28;20512;-59
2022/07/25 08:52:53;;;;;;;10.00;9.00;;;37.20;61.90;;;;;;5053880;28;20499;-59
2022/07/25 08:55:23;;;;;;;10.60;9.50;;;37.30;60.60;;;;;;5053858;28;21008;-59
2022/07/25 08:57:52;;;;;;;10.13;9.33;;;37.60;60.30;;;;;;5053720;28;20909;-59
2022/07/25 09:00:22;;;;;;;10.70;9.43;;;37.10;59.10;;;;;;5053517;28;20504;-59
2022/07/25 09:02:55;;;;;;;10.10;9.30;;;37.10;58.30;;;;;;5053500;28;20710;-59
2022/07/25 09:05:24;;;;;;;10.23;9.27;;;36.80;58.40;;;;;;5053910;28;20472;-59
2022/07/25 09:07:52;;;;;;;9.17;8.27;;;37.00;58.00;;;;;;5053436;28;20681;-59
2022/07/25 09:10:22;;;;;;;8.97;8.17;;;37.10;58.00;;;;;;5053602;28;20995;-59
2022/07/25 09:12:54;;;;;;;9.20;8.40;;;37.90;58.30;;;;;;5053356;28;20524;-59
2022/07/25 09:15:29;;;;;;;8.80;8.10;;;38.00;56.10;;;;;;5053572;28;20487;-59
2022/07/25 09:17:59;;;;;;;9.00;8.30;;;37.70;56.70;;;;;;5053161;28;20514;-59
2022/07/25 09:20:40;;;;;;;9.03;8.30;;;38.00;55.30;;;;;;5053153;28;20304;-59
2022/07/25 09:23:08;;;;;;;9.27;8.57;;;38.00;55.40;;;;;;5053062;28;20202;-59
2022/07/25 09:25:36;;;;;;;10.07;9.27;;;37.60;54.70;;;;;;5053509;28;20865;-59
2022/07/25 09:28:17;;;;;;;8.70;8.07;;;38.10;54.80;;;;;;5053273;28;20531;-60
2022/07/25 09:30:54;;;;;;;10.30;9.23;;;38.60;54.80;;;;;;5053267;28;20230;-59
2022/07/25 09:33:27;;;;;;;9.03;8.30;;;39.30;53.50;;;;;;5053018;28;20194;-59
2022/07/25 09:35:55;;;;;;;9.07;8.43;;;39.20;53.70;;;;;;5053003;28;20273;-59
2022/07/25 09:38:24;;;;;;;9.93;9.10;;;38.40;53.20;;;;;;5052863;28;20654;-59
2022/07/25 09:40:56;;;;;;;9.63;8.93;;;38.10;53.20;;;;;;5053018;28;20230;-60
2022/07/25 09:43:23;;;;;;;12.60;9.07;;;37.90;53.10;;;;;;5053012;28;20469;-59
2022/07/25 09:45:51;;;;;;;10.17;9.27;;;38.40;53.40;;;;;;5052786;28;20201;-59
2022/07/25 09:48:20;;;;;;;8.97;8.37;;;38.20;53.90;;;;;;5052621;28;20674;-59
2022/07/25 09:50:48;;;;;;;9.53;8.80;;;37.60;52.80;;;;;;5052617;28;20233;-59
2022/07/25 09:53:16;;;;;;;10.40;9.70;;;37.70;52.90;;;;;;5052678;28;20289;-59
2022/07/25 09:55:44;;;;;;;10.00;9.00;;;38.10;52.60;;;;;;5052946;28;20301;-59
2022/07/25 09:58:13;;;;;;;11.93;9.20;;;37.90;53.40;;;;;;5052982;28;20213;-59
2022/07/25 10:00:42;;;;;;;10.50;9.50;;;38.10;53.80;;;;;;5052526;28;20555;-59
2022/07/25 10:03:17;;;;;;;10.70;9.70;;;39.40;53.30;;;;;;5052369;28;20992;-60
2022/07/25 10:05:59;;;;;;;8.93;8.33;;;39.40;52.10;;;;;;5052677;28;20645;-59
2022/07/25 10:08:28;;;;;;;9.30;8.60;;;39.50;52.10;;;;;;5052679;28;20523;-60
2022/07/25 10:10:55;;;;;;;11.13;10.10;;;39.60;52.10;;;;;;5052978;28;20233;-60
2022/07/25 10:13:30;;;;;;;9.80;9.00;;;39.90;51.20;;;;;;5052671;28;20548;-60
2022/07/25 10:15:58;;;;;;;10.70;9.80;;;39.70;51.20;;;;;;5052957;28;20579;-59
2022/07/25 10:18:27;;;;;;;10.10;9.30;;;39.00;51.80;;;;;;5052637;28;20216;-59
2022/07/25 10:21:11;;;;;;;8.83;8.20;;;39.30;51.80;;;;;;5052641;28;20222;-59
2022/07/25 10:23:38;;;;;;;8.80;8.10;;;39.70;52.10;;;;;;5052296;28;20730;-59
2022/07/25 10:26:09;;;;;;;10.27;9.50;;;39.70;50.80;;;;;;5052723;28;20252;-60
2022/07/25 10:28:42;;;;;;;9.90;9.20;;;40.10;50.70;;;;;;5052449;28;20379;-59
2022/07/25 10:31:20;;;;;;;10.73;9.83;;;40.10;50.60;;;;;;5056511;28;20222;-60
2022/07/25 10:33:52;;;;;;;10.03;9.23;;;40.00;51.00;;;;;;5056748;28;20196;-59
2022/07/25 10:36:21;;;;;;;9.80;9.00;;;39.90;49.90;;;;;;5056474;28;20629;-60
2022/07/25 10:38:52;;;;;;;9.20;8.30;;;39.90;49.70;;;;;;5056712;28;20206;-59
2022/07/25 10:41:24;;;;;;;10.40;9.40;;;39.60;50.20;;;;;;5056290;28;20583;-60
2022/07/25 10:43:52;;;;;;;10.53;9.67;;;40.00;50.60;;;;;;5056083;28;20292;-59
2022/07/25 10:46:21;;;;;;;9.77;8.97;;;39.60;50.20;;;;;;5056403;28;20297;-60
2022/07/25 10:48:58;;;;;;;10.60;9.60;;;39.50;50.80;;;;;;5056431;28;20451;-59
2022/07/25 10:51:29;;;;;;;11.33;10.00;;;39.20;50.10;;;;;;5056014;28;20471;-60
2022/07/25 10:53:57;;;;;;;9.30;8.60;;;39.60;50.00;;;;;;5056395;28;20241;-60
2022/07/25 10:56:26;;;;;;;9.67;8.87;;;40.10;50.20;;;;;;5056423;28;20208;-60
2022/07/25 10:58:55;;;;;;;9.87;9.07;;;40.10;49.70;;;;;;5056080;28;20238;-60
2022/07/25 11:01:25;;;;;;;9.70;9.00;;;40.30;49.30;;;;;;5055322;28;20226;-60
2022/07/25 11:03:54;;;;;;;8.63;7.90;;;40.50;49.00;;;;;;5055856;28;20218;-60
2022/07/25 11:06:33;;;;;;;9.03;8.13;;;40.20;48.70;;;;;;5055763;28;20289;-60
2022/07/25 11:09:01;;;;;;;10.53;9.17;;;40.00;48.30;;;;;;5055885;28;20549;-60
2022/07/25 11:11:39;;;;;;;12.07;8.13;;;39.70;48.70;;;;;;5055921;28;20226;-59
2022/07/25 11:14:14;;;;;;;9.43;8.53;;;39.70;48.90;;;;;;5055393;28;20433;-59
2022/07/25 11:16:42;;;;;;;9.63;8.67;;;39.80;48.50;;;;;;5055553;28;20656;-59
2022/07/25 11:19:20;;;;;;;9.53;8.70;;;38.90;48.50;;;;;;5055622;28;20503;-59
2022/07/25 11:21:50;;;;;;;8.47;7.77;;;38.30;48.70;;;;;;5055412;28;20519;-60
2022/07/25 11:24:17;;;;;;;8.67;8.07;;;37.80;48.90;;;;;;5055075;28;20855;-59
2022/07/25 11:26:51;;;;;;;8.37;7.70;;;37.70;48.80;;;;;;5055376;28;20527;-59
2022/07/25 11:29:20;;;;;;;8.13;7.40;;;38.10;47.90;;;;;;5055247;28;20428;-59
2022/07/25 11:32:06;;;;;;;7.70;7.10;;;38.10;48.00;;;;;;5055621;28;20463;-59
2022/07/25 11:34:35;;;;;;;7.77;7.17;;;37.20;48.10;;;;;;5055090;28;20428;-59
2022/07/25 11:37:06;;;;;;;8.03;7.33;;;37.30;47.70;;;;;;5055435;28;20531;-59
2022/07/25 11:39:36;;;;;;;7.70;7.00;;;37.90;48.00;;;;;;5055079;28;20563;-59
2022/07/25 11:42:05;;;;;;;8.30;7.10;;;38.30;47.50;;;;;;5055024;28;20550;-59
2022/07/25 11:44:34;;;;;;;8.20;7.57;;;38.70;47.90;;;;;;5055144;28;20831;-59
2022/07/25 11:47:01;;;;;;;9.27;7.57;;;38.00;47.30;;;;;;5055413;28;20481;-59
2022/07/25 11:49:29;;;;;;;8.67;7.80;;;38.40;47.90;;;;;;5055002;28;20455;-59
2022/07/25 11:51:56;;;;;;;8.50;7.70;;;38.80;47.70;;;;;;5054869;28;20451;-60
2022/07/25 11:54:25;;;;;;;9.10;8.40;;;38.50;47.60;;;;;;5054877;28;20444;-60
2022/07/25 11:56:52;;;;;;;8.93;7.90;;;37.40;48.10;;;;;;5055100;28;20456;-59
2022/07/25 11:59:19;;;;;;;19.30;9.73;;;37.10;48.30;;;;;;5055028;28;20504;-59
2022/07/25 12:01:47;;;;;;;10.60;8.33;;;37.00;49.20;;;;;;5054986;28;20449;-59
2022/07/25 12:04:16;;;;;;;7.73;7.10;;;37.20;48.80;;;;;;5055106;28;20481;-59
2022/07/25 12:06:44;;;;;;;7.93;7.13;;;37.90;48.70;;;;;;5055112;28;20445;-59
2022/07/25 12:09:16;;;;;;;7.93;7.30;;;38.60;48.10;;;;;;5054624;28;20979;-60
2022/07/25 12:11:46;;;;;;;8.50;7.70;;;39.20;47.90;;;;;;5054881;28;20457;-60
2022/07/25 12:14:13;;;;;;;7.50;6.90;;;38.50;47.40;;;;;;5054989;28;20444;-59
2022/07/25 12:16:41;;;;;;;8.73;8.03;;;37.70;47.30;;;;;;5054454;28;20538;-60
2022/07/25 12:19:18;;;;;;;8.50;7.73;;;37.30;47.60;;;;;;5054697;28;20464;-60
2022/07/25 12:21:45;;;;;;;8.00;7.30;;;37.20;48.40;;;;;;5054411;28;20913;-60
2022/07/25 12:24:12;;;;;;;8.40;7.70;;;37.50;48.60;;;;;;5054505;28;20575;-59
2022/07/25 12:26:39;;;;;;;8.43;6.53;;;38.00;47.70;;;;;;5054641;28;20528;-59
2022/07/25 12:29:08;;;;;;;7.40;6.57;;;38.30;47.80;;;;;;5054352;28;20484;-59
2022/07/25 12:31:35;;;;;;;7.53;6.93;;;38.60;47.30;;;;;;5054673;28;20471;-59
2022/07/25 12:34:02;;;;;;;7.40;6.80;;;38.50;47.40;;;;;;5054538;28;20440;-60
2022/07/25 12:36:29;;;;;;;8.10;7.50;;;38.10;47.50;;;;;;5054077;28;20535;-59
2022/07/25 12:38:57;;;;;;;8.30;7.57;;;37.80;47.80;;;;;;5054124;28;20953;-59